Time;durP1;ratioP1;P1;durP2;ratioP2;P2;SDS_P1;SDS_P2;PMS_P1;PMS_P2;Temp;Humidity;BMP_temperature;BMP_pressure;BME280_temperature;BME280_humidity;BME280_pressure;Samples;Min_cycle;Max_cycle;Signal;HPM_P1;HPM_P2
2023/06/03 00:00:57;;;;;;;;;12.75;12.00;;;;;;;;5035538;28;45429;-57
2023/06/03 00:03:22;;;;;;;;;11.25;11.25;;;;;;;;5035198;28;45551;-55
2023/06/03 00:05:48;;;;;;;;;12.00;11.50;;;;;;;;5035648;28;45372;-57
2023/06/03 00:08:13;;;;;;;;;12.50;12.50;;;;;;;;5035185;28;45369;-57
2023/06/03 00:10:38;;;;;;;;;11.75;11.75;;;;;;;;5034588;28;45336;-57
2023/06/03 00:13:03;;;;;;;;;12.50;12.00;;;;;;;;5035202;28;46069;-56
2023/06/03 00:15:29;;;;;;;;;12.00;11.00;;;;;;;;5052699;28;45372;-55
2023/06/03 00:17:54;;;;;;;;;12.00;12.00;;;;;;;;5055482;28;45372;-55
2023/06/03 00:20:19;;;;;;;;;12.75;12.00;;;;;;;;5055615;28;45676;-58
2023/06/03 00:22:46;;;;;;;;;14.50;11.00;;;;;;;;5055105;28;46437;-57
2023/06/03 00:25:12;;;;;;;;;11.60;11.60;;;;;;;;5054020;28;45373;-57
2023/06/03 00:27:37;;;;;;;;;13.00;10.50;;;;;;;;5042712;28;45498;-58
2023/06/03 00:30:03;;;;;;;;;12.25;11.00;;;;;;;;5047994;28;45254;-57
2023/06/03 00:32:28;;;;;;;;;17.00;13.25;;;;;;;;5034895;28;47337;-56
2023/06/03 00:34:54;;;;;;;;;15.25;13.25;;;;;;;;5052191;28;45447;-57
2023/06/03 00:37:19;;;;;;;;;14.75;11.75;;;;;;;;5054880;28;45342;-57
2023/06/03 00:39:44;;;;;;;;;12.00;12.00;;;;;;;;5055119;28;45553;-56
2023/06/03 00:42:09;;;;;;;;;17.50;13.50;;;;;;;;5054463;28;46455;-57
2023/06/03 00:44:35;;;;;;;;;13.00;11.75;;;;;;;;5054674;28;45319;-58
2023/06/03 00:47:00;;;;;;;;;14.75;13.25;;;;;;;;5054781;28;45315;-58
2023/06/03 00:49:26;;;;;;;;;14.75;13.25;;;;;;;;5055018;28;45669;-58
2023/06/03 00:51:51;;;;;;;;;12.50;11.25;;;;;;;;5054799;28;45354;-56
2023/06/03 00:54:16;;;;;;;;;14.50;12.00;;;;;;;;5043875;28;45342;-56
2023/06/03 00:56:42;;;;;;;;;16.75;15.00;;;;;;;;5034982;28;45378;-57
2023/06/03 00:59:08;;;;;;;;;18.00;9.75;;;;;;;;5033447;28;45445;-57
2023/06/03 01:01:35;;;;;;;;;16.50;15.00;;;;;;;;5034520;28;45501;-56
2023/06/03 01:04:01;;;;;;;;;13.60;13.60;;;;;;;;5033584;28;45478;-54
2023/06/03 01:06:27;;;;;;;;;15.25;13.75;;;;;;;;5034605;28;45396;-58
2023/06/03 01:08:57;;;;;;;;;16.40;14.60;;;;;;;;5034813;28;45631;-56
2023/06/03 01:11:41;;;;;;;;;15.20;14.00;;;;;;;;5034294;28;45966;-55
2023/06/03 01:14:18;;;;;;;;;12.60;11.20;;;;;;;;5037809;28;45309;-56
2023/06/03 01:16:44;;;;;;;;;16.20;15.40;;;;;;;;5054419;28;45355;-56
2023/06/03 01:19:29;;;;;;;;;15.80;15.80;;;;;;;;5069971;28;45595;-57
2023/06/03 01:22:00;;;;;;;;;15.80;14.00;;;;;;;;5043051;28;45609;-58
2023/06/03 01:24:26;;;;;;;;;14.20;13.40;;;;;;;;5036819;28;45477;-57
2023/06/03 01:26:51;;;;;;;;;13.00;13.00;;;;;;;;5053130;28;45344;-57
2023/06/03 01:29:16;;;;;;;;;14.50;12.00;;;;;;;;5070319;28;45206;-57
2023/06/03 01:31:42;;;;;;;;;16.25;13.00;;;;;;;;5053953;28;46480;-57
2023/06/03 01:34:07;;;;;;;;;16.75;16.00;;;;;;;;5054055;28;45320;-57
2023/06/03 01:36:32;;;;;;;;;18.00;15.00;;;;;;;;5069931;28;45431;-57
2023/06/03 01:38:57;;;;;;;;;21.50;18.50;;;;;;;;5054420;28;45230;-57
2023/06/03 01:41:23;;;;;;;;;19.00;14.25;;;;;;;;5052708;28;46090;-55
2023/06/03 01:43:49;;;;;;;;;16.00;15.00;;;;;;;;5053791;28;45375;-57
2023/06/03 01:46:14;;;;;;;;;16.75;15.50;;;;;;;;5052830;28;45330;-58
2023/06/03 01:48:39;;;;;;;;;17.75;17.50;;;;;;;;5053104;28;45386;-57
2023/06/03 01:51:05;;;;;;;;;17.50;17.50;;;;;;;;5035575;28;48720;-56
2023/06/03 01:53:30;;;;;;;;;19.25;17.50;;;;;;;;5054307;28;45376;-58
2023/06/03 01:55:55;;;;;;;;;23.75;19.00;;;;;;;;5053890;28;45762;-57
2023/06/03 01:58:21;;;;;;;;;18.25;16.50;;;;;;;;5054420;28;45333;-57
2023/06/03 02:00:46;;;;;;;;;21.50;20.25;;;;;;;;5052096;28;45422;-57
2023/06/03 02:03:11;;;;;;;;;17.50;14.75;;;;;;;;5054079;28;45433;-54
2023/06/03 02:05:37;;;;;;;;;16.75;15.50;;;;;;;;5018369;28;45582;-57
2023/06/03 02:08:02;;;;;;;;;18.00;17.00;;;;;;;;5032897;28;45286;-55
2023/06/03 02:10:27;;;;;;;;;14.25;11.75;;;;;;;;5033306;28;46150;-53
2023/06/03 02:12:52;;;;;;;;;16.00;16.00;;;;;;;;5032285;28;45685;-56
2023/06/03 02:15:18;;;;;;;;;19.75;18.25;;;;;;;;5046710;28;45163;-57
2023/06/03 02:17:43;;;;;;;;;15.25;15.25;;;;;;;;5053889;28;45421;-57
2023/06/03 02:20:09;;;;;;;;;17.75;15.50;;;;;;;;5053137;28;45764;-56
2023/06/03 02:22:34;;;;;;;;;17.75;15.25;;;;;;;;5053474;28;45845;-57
2023/06/03 02:24:59;;;;;;;;;16.50;16.50;;;;;;;;5054052;28;45746;-57
2023/06/03 02:27:25;;;;;;;;;19.00;18.50;;;;;;;;5053511;28;45296;-55
2023/06/03 02:29:51;;;;;;;;;18.75;16.00;;;;;;;;5053502;28;45384;-56
2023/06/03 02:32:17;;;;;;;;;17.00;17.00;;;;;;;;5053444;28;45328;-56
2023/06/03 02:34:46;;;;;;;;;20.00;19.50;;;;;;;;5055392;28;45392;-56
2023/06/03 02:37:12;;;;;;;;;23.80;19.40;;;;;;;;5055731;28;45303;-56
2023/06/03 02:39:37;;;;;;;;;18.00;17.25;;;;;;;;5057000;28;46352;-57
2023/06/03 02:42:02;;;;;;;;;19.25;16.75;;;;;;;;5056613;28;45288;-57
2023/06/03 02:44:28;;;;;;;;;18.50;15.50;;;;;;;;5056808;28;45493;-56
2023/06/03 02:46:53;;;;;;;;;20.50;15.50;;;;;;;;5056977;28;45233;-56
2023/06/03 02:49:18;;;;;;;;;18.00;17.25;;;;;;;;5056781;28;46113;-59
2023/06/03 02:51:43;;;;;;;;;23.50;18.25;;;;;;;;5072379;28;45412;-57
2023/06/03 02:54:09;;;;;;;;;19.50;16.50;;;;;;;;5056724;28;45195;-57
2023/06/03 02:56:34;;;;;;;;;19.75;14.75;;;;;;;;5072487;28;45396;-57
2023/06/03 02:59:00;;;;;;;;;20.75;18.00;;;;;;;;5071884;28;46036;-57
2023/06/03 03:01:26;;;;;;;;;23.25;19.00;;;;;;;;5056307;28;45827;-56
2023/06/03 03:03:51;;;;;;;;;17.60;16.00;;;;;;;;5072143;28;45661;-57
2023/06/03 03:06:19;;;;;;;;;21.50;17.50;;;;;;;;5048762;28;45700;-58
2023/06/03 03:08:45;;;;;;;;;18.00;17.80;;;;;;;;5056424;28;46775;-57
2023/06/03 03:11:10;;;;;;;;;20.50;17.50;;;;;;;;5054824;28;45520;-58
2023/06/03 03:13:35;;;;;;;;;16.50;16.25;;;;;;;;5056560;28;45744;-57
2023/06/03 03:16:01;;;;;;;;;22.25;18.75;;;;;;;;5056369;28;45359;-56
2023/06/03 03:18:26;;;;;;;;;17.25;15.75;;;;;;;;5056046;28;46260;-57
2023/06/03 03:20:52;;;;;;;;;20.75;19.50;;;;;;;;5038050;28;45463;-57
2023/06/03 03:23:17;;;;;;;;;21.50;20.75;;;;;;;;5056374;28;45266;-56
2023/06/03 03:25:42;;;;;;;;;19.50;16.50;;;;;;;;5055048;28;45546;-57
2023/06/03 03:28:07;;;;;;;;;17.25;16.00;;;;;;;;5055783;28;46157;-58
2023/06/03 03:30:33;;;;;;;;;21.50;17.00;;;;;;;;5056090;28;45351;-57
2023/06/03 03:32:59;;;;;;;;;19.50;18.00;;;;;;;;5054926;28;45776;-57
2023/06/03 03:35:24;;;;;;;;;23.80;20.20;;;;;;;;5056422;28;45361;-58
2023/06/03 03:37:50;;;;;;;;;19.25;18.75;;;;;;;;5055712;28;45837;-57
2023/06/03 03:40:19;;;;;;;;;17.00;17.00;;;;;;;;5037218;28;45486;-57
2023/06/03 03:42:48;;;;;;;;;18.20;16.80;;;;;;;;5055882;28;45364;-57
2023/06/03 03:45:21;;;;;;;;;23.60;20.60;;;;;;;;5055476;28;45573;-56
2023/06/03 03:47:50;;;;;;;;;22.20;18.40;;;;;;;;5055147;28;45753;-57
2023/06/03 03:50:34;;;;;;;;;22.00;19.60;;;;;;;;5055896;28;45289;-57
2023/06/03 03:53:00;;;;;;;;;20.00;18.80;;;;;;;;5056223;28;45270;-55
2023/06/03 03:55:25;;;;;;;;;20.75;17.25;;;;;;;;5054694;28;45605;-58
2023/06/03 03:57:50;;;;;;;;;19.75;18.75;;;;;;;;5055592;28;46443;-58
2023/06/03 04:00:16;;;;;;;;;20.50;17.75;;;;;;;;5055819;28;45298;-56
2023/06/03 04:02:41;;;;;;;;;20.00;18.50;;;;;;;;5054407;28;45423;-57
2023/06/03 04:05:08;;;;;;;;;19.50;14.75;;;;;;;;5054911;28;45614;-57
2023/06/03 04:07:35;;;;;;;;;21.20;19.00;;;;;;;;5054448;28;47433;-56
2023/06/03 04:10:00;;;;;;;;;18.00;18.00;;;;;;;;5055679;28;45358;-57
2023/06/03 04:12:32;;;;;;;;;20.75;19.25;;;;;;;;5054142;28;45203;-58
2023/06/03 04:14:57;;;;;;;;;17.80;17.80;;;;;;;;5055808;28;45574;-57
2023/06/03 04:17:25;;;;;;;;;18.75;16.25;;;;;;;;5055904;28;46129;-57
2023/06/03 04:19:51;;;;;;;;;16.00;16.00;;;;;;;;5055761;28;45702;-57
2023/06/03 04:22:20;;;;;;;;;15.75;14.75;;;;;;;;5055745;28;45322;-58
2023/06/03 04:24:45;;;;;;;;;18.40;17.40;;;;;;;;5055603;28;45632;-57
2023/06/03 04:27:12;;;;;;;;;20.75;19.50;;;;;;;;5071044;28;46388;-58
2023/06/03 04:29:38;;;;;;;;;23.00;22.60;;;;;;;;5055513;28;45325;-57
2023/06/03 04:32:04;;;;;;;;;17.60;16.00;;;;;;;;5053778;28;45382;-58
2023/06/03 04:34:29;;;;;;;;;18.25;18.25;;;;;;;;5055878;28;45328;-57
2023/06/03 04:36:54;;;;;;;;;22.75;17.75;;;;;;;;5054816;28;47450;-57
2023/06/03 04:39:20;;;;;;;;;21.75;19.00;;;;;;;;5055405;28;45330;-57
2023/06/03 04:41:45;;;;;;;;;18.25;17.25;;;;;;;;5054539;28;45303;-57
2023/06/03 04:44:11;;;;;;;;;24.00;20.75;;;;;;;;5027301;28;45809;-53
2023/06/03 04:46:36;;;;;;;;;19.50;18.00;;;;;;;;5050529;28;46253;-57
2023/06/03 04:49:01;;;;;;;;;21.00;18.25;;;;;;;;5055179;28;45276;-57
2023/06/03 04:51:33;;;;;;;;;24.25;21.25;;;;;;;;5054901;28;45304;-57
2023/06/03 04:53:58;;;;;;;;;22.00;20.20;;;;;;;;5053757;28;45645;-56
2023/06/03 04:56:24;;;;;;;;;25.00;22.50;;;;;;;;5054315;28;45450;-57
2023/06/03 04:58:55;;;;;;;;;19.80;19.20;;;;;;;;5054483;28;45304;-58
2023/06/03 05:01:23;;;;;;;;;20.20;17.00;;;;;;;;5053684;28;45376;-57
2023/06/03 05:03:49;;;;;;;;;21.00;19.60;;;;;;;;5053709;28;45351;-58
2023/06/03 05:06:14;;;;;;;;;19.00;16.25;;;;;;;;5054708;28;45308;-58
2023/06/03 05:08:40;;;;;;;;;22.00;18.75;;;;;;;;5054868;28;45379;-57
2023/06/03 05:11:05;;;;;;;;;20.00;18.25;;;;;;;;5053232;28;45346;-57
2023/06/03 05:13:31;;;;;;;;;22.00;18.75;;;;;;;;5055087;28;45360;-55
2023/06/03 05:15:56;;;;;;;;;21.50;20.50;;;;;;;;5052768;28;47780;-57
2023/06/03 05:18:21;;;;;;;;;19.25;18.00;;;;;;;;5054430;28;45515;-58
2023/06/03 05:20:47;;;;;;;;;21.50;19.75;;;;;;;;5054501;28;45359;-57
2023/06/03 05:23:12;;;;;;;;;23.50;17.50;;;;;;;;5054475;28;45630;-55
2023/06/03 05:25:37;;;;;;;;;22.75;19.75;;;;;;;;5054411;28;46462;-57
2023/06/03 05:28:03;;;;;;;;;17.50;16.75;;;;;;;;5054282;28;45390;-58
2023/06/03 05:30:28;;;;;;;;;20.50;20.50;;;;;;;;5054510;28;45625;-57
2023/06/03 05:32:53;;;;;;;;;25.50;21.00;;;;;;;;5054804;28;45642;-57
2023/06/03 05:35:19;;;;;;;;;19.00;16.75;;;;;;;;5054111;28;45250;-56
2023/06/03 05:37:44;;;;;;;;;20.50;19.25;;;;;;;;5052694;28;45238;-57
2023/06/03 05:40:10;;;;;;;;;21.50;20.25;;;;;;;;5054117;28;45237;-52
2023/06/03 05:42:35;;;;;;;;;19.00;18.75;;;;;;;;5054193;28;45537;-58
2023/06/03 05:45:00;;;;;;;;;23.25;21.50;;;;;;;;5054067;28;47353;-54
2023/06/03 05:47:26;;;;;;;;;27.00;22.00;;;;;;;;5023171;28;45736;-58
2023/06/03 05:49:51;;;;;;;;;20.50;17.75;;;;;;;;5054207;28;45311;-57
2023/06/03 05:52:16;;;;;;;;;24.25;19.25;;;;;;;;5054443;28;45178;-57
2023/06/03 05:54:41;;;;;;;;;23.75;21.50;;;;;;;;5054318;28;45353;-56
2023/06/03 05:57:07;;;;;;;;;20.00;19.25;;;;;;;;5053944;28;45313;-58
2023/06/03 05:59:32;;;;;;;;;23.75;19.00;;;;;;;;5054296;28;45240;-58
2023/06/03 06:01:57;;;;;;;;;21.00;19.75;;;;;;;;5054343;28;45198;-58
2023/06/03 06:04:22;;;;;;;;;20.00;15.50;;;;;;;;5053647;28;46487;-58
2023/06/03 06:06:48;;;;;;;;;25.75;21.25;;;;;;;;5054130;28;45377;-57
2023/06/03 06:09:13;;;;;;;;;23.25;18.50;;;;;;;;5055122;28;45328;-57
2023/06/03 06:11:38;;;;;;;;;22.00;18.75;;;;;;;;5057573;28;45294;-56
2023/06/03 06:14:04;;;;;;;;;21.00;17.25;;;;;;;;5057418;28;45692;-57
2023/06/03 06:16:29;;;;;;;;;18.00;16.75;;;;;;;;5055775;28;45255;-57
2023/06/03 06:18:56;;;;;;;;;17.25;15.75;;;;;;;;5057641;28;45291;-58
2023/06/03 06:21:21;;;;;;;;;16.00;14.80;;;;;;;;5057732;28;45289;-57
2023/06/03 06:23:46;;;;;;;;;16.50;15.75;;;;;;;;5072230;28;45732;-55
2023/06/03 06:26:15;;;;;;;;;22.25;19.75;;;;;;;;5057642;28;45926;-56
2023/06/03 06:28:40;;;;;;;;;17.60;17.00;;;;;;;;5072551;28;45361;-56
2023/06/03 06:31:06;;;;;;;;;28.50;17.00;;;;;;;;5057185;28;45673;-57
2023/06/03 06:33:34;;;;;;;;;18.25;16.25;;;;;;;;5056794;28;45935;-58
2023/06/03 06:36:11;;;;;;;;;21.00;17.80;;;;;;;;5056905;28;45338;-57
2023/06/03 06:38:37;;;;;;;;;19.20;18.20;;;;;;;;5072868;28;45856;-57
2023/06/03 06:41:02;;;;;;;;;17.00;17.00;;;;;;;;5055467;28;45734;-55
2023/06/03 06:43:28;;;;;;;;;20.75;19.75;;;;;;;;5057206;28;46313;-57
2023/06/03 06:45:54;;;;;;;;;22.80;19.00;;;;;;;;5056852;28;45407;-55
2023/06/03 06:48:20;;;;;;;;;17.60;16.60;;;;;;;;5057131;28;45265;-58
2023/06/03 06:50:46;;;;;;;;;19.25;15.50;;;;;;;;5072725;28;45491;-58
2023/06/03 06:53:11;;;;;;;;;17.80;16.80;;;;;;;;5056858;28;46062;-56
2023/06/03 06:55:52;;;;;;;;;17.50;16.25;;;;;;;;5057023;28;45759;-56
2023/06/03 06:58:18;;;;;;;;;17.80;16.80;;;;;;;;5072707;28;45486;-56
2023/06/03 07:00:43;;;;;;;;;18.00;14.25;;;;;;;;5056146;28;45539;-56
2023/06/03 07:03:09;;;;;;;;;22.00;19.25;;;;;;;;5039283;28;46480;-57
2023/06/03 07:05:34;;;;;;;;;18.00;17.25;;;;;;;;5036560;28;46133;-57
2023/06/03 07:07:59;;;;;;;;;17.25;16.00;;;;;;;;5036693;28;45503;-61
2023/06/03 07:10:24;;;;;;;;;18.25;18.25;;;;;;;;5036344;28;45518;-59
2023/06/03 07:12:51;;;;;;;;;17.75;16.00;;;;;;;;5038164;28;45741;-58
2023/06/03 07:15:17;;;;;;;;;15.60;13.40;;;;;;;;5051713;28;45462;-56
2023/06/03 07:17:42;;;;;;;;;21.00;16.75;;;;;;;;5054869;28;45316;-58
2023/06/03 07:20:08;;;;;;;;;18.75;16.50;;;;;;;;5056451;28;45139;-58
2023/06/03 07:22:33;;;;;;;;;19.50;18.00;;;;;;;;5056641;28;46296;-57
2023/06/03 07:24:58;;;;;;;;;19.25;17.25;;;;;;;;5071645;28;45415;-57
2023/06/03 07:27:26;;;;;;;;;17.50;16.25;;;;;;;;5056414;28;45447;-56
2023/06/03 07:29:51;;;;;;;;;15.40;15.20;;;;;;;;5056804;28;45332;-57
2023/06/03 07:32:17;;;;;;;;;18.50;17.75;;;;;;;;5055002;28;46829;-59
2023/06/03 07:34:42;;;;;;;;;18.75;17.00;;;;;;;;5045746;27;46094;-58
2023/06/03 07:37:11;;;;;;;;;19.50;18.50;;;;;;;;5056268;28;45737;-57
2023/06/03 07:39:36;;;;;;;;;19.60;17.20;;;;;;;;5056652;28;45236;-60
2023/06/03 07:42:02;;;;;;;;;13.75;12.75;;;;;;;;5055784;28;46292;-57
2023/06/03 07:44:34;;;;;;;;;14.75;14.75;;;;;;;;5054943;28;45355;-57
2023/06/03 07:46:59;;;;;;;;;5.60;1.20;;;;;;;;5038179;28;45372;-56
2023/06/03 07:49:24;;;;;;;;;22.25;18.00;;;;;;;;5056026;28;45524;-59
2023/06/03 07:51:50;;;;;;;;;21.50;19.75;;;;;;;;5034790;28;46369;-56
2023/06/03 07:54:16;;;;;;;;;15.50;15.50;;;;;;;;5048012;28;45526;-58
2023/06/03 07:56:41;;;;;;;;;16.75;16.00;;;;;;;;5035923;28;45883;-59
2023/06/03 07:59:10;;;;;;;;;17.25;17.25;;;;;;;;5053157;28;45401;-59
2023/06/03 08:01:38;;;;;;;;;15.80;14.60;;;;;;;;5052372;28;45525;-59
2023/06/03 08:04:24;;;;;;;;;15.80;15.40;;;;;;;;5053763;28;45847;-59
2023/06/03 08:06:52;;;;;;;;;17.20;14.80;;;;;;;;5043387;28;45616;-61
2023/06/03 08:09:18;;;;;;;;;14.00;14.00;;;;;;;;5052867;28;45316;-59
2023/06/03 08:11:44;;;;;;;;;17.80;17.80;;;;;;;;5052243;28;46302;-58
2023/06/03 08:14:09;;;;;;;;;17.25;17.25;;;;;;;;5053772;28;45653;-59
2023/06/03 08:16:34;;;;;;;;;16.25;16.25;;;;;;;;5052684;28;45660;-58
2023/06/03 08:19:01;;;;;;;;;22.50;16.75;;;;;;;;5069636;28;45561;-59
2023/06/03 08:21:30;;;;;;;;;20.60;19.40;;;;;;;;5053509;28;46751;-58
2023/06/03 08:23:55;;;;;;;;;18.00;17.00;;;;;;;;5053781;28;45457;-59
2023/06/03 08:26:21;;;;;;;;;18.75;15.50;;;;;;;;5054000;28;45373;-58
2023/06/03 08:28:46;;;;;;;;;20.00;17.00;;;;;;;;5052574;28;45622;-58
2023/06/03 08:31:13;;;;;;;;;14.50;12.75;;;;;;;;5052122;28;46822;-59
2023/06/03 08:33:38;;;;;;;;;16.60;15.40;;;;;;;;5051761;28;45394;-59
2023/06/03 08:36:03;;;;;;;;;15.50;11.25;;;;;;;;5054761;28;45324;-59
2023/06/03 08:38:29;;;;;;;;;14.00;14.00;;;;;;;;5053385;28;45377;-60
2023/06/03 08:40:55;;;;;;;;;17.00;17.00;;;;;;;;5031868;28;46560;-60
2023/06/03 08:43:21;;;;;;;;;19.00;15.20;;;;;;;;5049324;28;45529;-60
2023/06/03 08:45:46;;;;;;;;;16.00;15.00;;;;;;;;5069631;28;45503;-58
2023/06/03 08:48:28;;;;;;;;;16.75;13.75;;;;;;;;5054230;28;45569;-56
2023/06/03 08:50:54;;;;;;;;;12.20;11.40;;;;;;;;5051360;28;45433;-58
2023/06/03 08:53:20;;;;;;;;;17.40;16.00;;;;;;;;5051651;28;45596;-58
2023/06/03 08:55:45;;;;;;;;;16.75;15.25;;;;;;;;5052145;28;45390;-57
2023/06/03 08:58:12;;;;;;;;;17.50;15.00;;;;;;;;5035922;28;45396;-58
2023/06/03 09:00:37;;;;;;;;;20.40;17.20;;;;;;;;5052030;28;47450;-58
2023/06/03 09:03:03;;;;;;;;;13.00;11.75;;;;;;;;5053630;28;45530;-60
2023/06/03 09:05:28;;;;;;;;;14.00;12.50;;;;;;;;5051516;28;45513;-59
2023/06/03 09:07:53;;;;;;;;;15.25;14.25;;;;;;;;5053678;28;45356;-58
2023/06/03 09:10:22;;;;;;;;;12.50;12.25;;;;;;;;5052341;28;46012;-59
2023/06/03 09:12:48;;;;;;;;;14.60;14.60;;;;;;;;5053152;28;45359;-58
2023/06/03 09:15:16;;;;;;;;;15.50;14.25;;;;;;;;5052248;28;45406;-57
2023/06/03 09:17:42;;;;;;;;;16.20;16.20;;;;;;;;5047036;28;45373;-58
2023/06/03 09:20:07;;;;;;;;;17.00;15.75;;;;;;;;5033191;28;46128;-58
2023/06/03 09:22:33;;;;;;;;;13.75;13.50;;;;;;;;5047625;28;45479;-59
2023/06/03 09:24:58;;;;;;;;;14.25;13.25;;;;;;;;5051707;28;45429;-59
2023/06/03 09:27:23;;;;;;;;;17.25;13.75;;;;;;;;5053392;28;45316;-56
2023/06/03 09:29:50;;;;;;;;;14.50;11.25;;;;;;;;5046046;28;46655;-56
2023/06/03 09:32:16;;;;;;;;;12.60;12.60;;;;;;;;5053158;28;45372;-55
2023/06/03 09:34:42;;;;;;;;;9.00;8.75;;;;;;;;5028605;28;45439;-56
2023/06/03 09:37:08;;;;;;;;;14.00;11.50;;;;;;;;5051053;28;45418;-55
2023/06/03 09:39:33;;;;;;;;;11.80;11.40;;;;;;;;5068019;28;45313;-58
2023/06/03 09:41:59;;;;;;;;;14.25;14.25;;;;;;;;5051222;28;45593;-58
2023/06/03 09:44:24;;;;;;;;;10.75;10.75;;;;;;;;5053960;28;45417;-59
2023/06/03 09:46:50;;;;;;;;;15.50;11.75;;;;;;;;5072443;28;45431;-60
2023/06/03 09:49:19;;;;;;;;;12.40;10.60;;;;;;;;5054039;28;46250;-57
2023/06/03 09:51:45;;;;;;;;;9.80;9.80;;;;;;;;5054305;28;45439;-58
2023/06/03 09:54:12;;;;;;;;;13.80;12.80;;;;;;;;5044944;28;45814;-60
2023/06/03 09:56:37;;;;;;;;;13.20;11.60;;;;;;;;5054326;28;45524;-60
2023/06/03 09:59:15;;;;;;;;;11.00;11.00;;;;;;;;5052115;28;45841;-60
2023/06/03 10:01:47;;;;;;;;;16.20;13.80;;;;;;;;5054555;28;45396;-59
2023/06/03 10:04:23;;;;;;;;;12.60;12.00;;;;;;;;5046129;28;46608;-61
2023/06/03 10:07:07;;;;;;;;;10.00;9.40;;;;;;;;5066420;28;45547;-57
2023/06/03 10:09:33;;;;;;;;;13.80;12.80;;;;;;;;5053609;28;47053;-60
2023/06/03 10:11:58;;;;;;;;;12.25;12.25;;;;;;;;5054545;28;45399;-61
2023/06/03 10:14:25;;;;;;;;;15.25;13.25;;;;;;;;5053175;28;45742;-62
2023/06/03 10:17:06;;;;;;;;;13.40;11.60;;;;;;;;5050746;28;45558;-64
2023/06/03 10:19:34;;;;;;;;;11.20;8.40;;;;;;;;5035477;28;46671;-62
2023/06/03 10:22:00;;;;;;;;;14.00;11.60;;;;;;;;5035801;28;45731;-63
2023/06/03 10:24:28;;;;;;;;;11.50;9.00;;;;;;;;5035396;28;45405;-64
2023/06/03 10:26:54;;;;;;;;;10.40;9.00;;;;;;;;5045552;28;45346;-64
2023/06/03 10:29:19;;;;;;;;;10.25;10.25;;;;;;;;5035479;28;45795;-63
2023/06/03 10:31:44;;;;;;;;;10.00;9.00;;;;;;;;5034584;28;45276;-63
2023/06/03 10:34:11;;;;;;;;;11.00;11.00;;;;;;;;5035486;28;45736;-62
2023/06/03 10:36:36;;;;;;;;;9.40;8.80;;;;;;;;5034700;28;45424;-60
2023/06/03 10:39:01;;;;;;;;;12.50;11.25;;;;;;;;5038691;28;46282;-62
2023/06/03 10:41:30;;;;;;;;;14.75;11.00;;;;;;;;5050487;28;45316;-59
2023/06/03 10:43:55;;;;;;;;;11.80;11.80;;;;;;;;5051978;28;45468;-59
2023/06/03 10:46:20;;;;;;;;;14.00;12.50;;;;;;;;5009658;28;45800;-61
2023/06/03 10:48:45;;;;;;;;;13.50;11.25;;;;;;;;5022553;28;45525;-62
2023/06/03 10:51:17;;;;;;;;;14.25;13.75;;;;;;;;5049014;28;45604;-63
2023/06/03 10:53:54;;;;;;;;;13.00;9.20;;;;;;;;5016930;28;45442;-60
2023/06/03 10:56:22;;;;;;;;;13.40;13.40;;;;;;;;5026501;28;45762;-61
2023/06/03 10:58:50;;;;;;;;;11.60;10.00;;;;;;;;5038223;28;46506;-63
2023/06/03 11:01:15;;;;;;;;;11.00;9.00;;;;;;;;5063322;28;45750;-61
2023/06/03 11:03:53;;;;;;;;;11.25;9.75;;;;;;;;5049947;28;45439;-62
2023/06/03 11:06:18;;;;;;;;;13.00;11.80;;;;;;;;5053609;28;45378;-62
2023/06/03 11:09:00;;;;;;;;;11.50;10.75;;;;;;;;5054926;28;45782;-62
2023/06/03 11:11:41;;;;;;;;;9.80;9.40;;;;;;;;5054696;28;45392;-63
2023/06/03 11:14:07;;;;;;;;;11.00;9.80;;;;;;;;5049626;28;45807;-62
2023/06/03 11:16:51;;;;;;;;;11.50;11.50;;;;;;;;5049756;28;46366;-61
2023/06/03 11:19:34;;;;;;;;;16.20;13.80;;;;;;;;5054471;28;46986;-61
2023/06/03 11:22:09;;;;;;;;;15.80;14.00;;;;;;;;5054696;28;45428;-59
2023/06/03 11:24:37;;;;;;;;;12.20;12.20;;;;;;;;5054448;28;45500;-59
2023/06/03 11:27:19;;;;;;;;;12.00;12.00;;;;;;;;5053948;28;45672;-60
2023/06/03 11:29:45;;;;;;;;;12.40;12.20;;;;;;;;5054748;28;45958;-62
2023/06/03 11:32:14;;;;;;;;;14.75;12.50;;;;;;;;5055072;28;45522;-61
2023/06/03 11:34:39;;;;;;;;;13.40;12.40;;;;;;;;5054311;28;45414;-61
2023/06/03 11:37:04;;;;;;;;;13.00;11.25;;;;;;;;5054933;28;45336;-62
2023/06/03 11:39:49;;;;;;;;;13.25;12.50;;;;;;;;5050917;28;46116;-60
2023/06/03 11:42:14;;;;;;;;;11.60;11.20;;;;;;;;5035054;28;45486;-59
2023/06/03 11:44:41;;;;;;;;;11.00;10.00;;;;;;;;5033805;28;45503;-62
2023/06/03 11:47:06;;;;;;;;;10.40;10.00;;;;;;;;5053977;28;45575;-61
2023/06/03 11:49:35;;;;;;;;;13.25;12.75;;;;;;;;5054234;28;45504;-61
2023/06/03 11:52:01;;;;;;;;;12.40;11.60;;;;;;;;5047957;28;45441;-61
2023/06/03 11:54:26;;;;;;;;;10.50;10.50;;;;;;;;5023436;28;45814;-60
2023/06/03 11:56:52;;;;;;;;;9.50;8.50;;;;;;;;5033503;28;45416;-62
2023/06/03 11:59:33;;;;;;;;;12.50;11.25;;;;;;;;5034219;28;45584;-59
2023/06/03 12:01:58;;;;;;;;;7.60;7.60;;;;;;;;5031869;28;45411;-61
2023/06/03 12:04:24;;;;;;;;;14.25;13.00;;;;;;;;5051829;28;45374;-60
2023/06/03 12:06:49;;;;;;;;;11.25;10.00;;;;;;;;5052471;28;45775;-61
2023/06/03 12:09:22;;;;;;;;;9.75;9.50;;;;;;;;5054298;28;45710;-60
2023/06/03 12:11:47;;;;;;;;;11.00;11.00;;;;;;;;5054329;28;45642;-62
2023/06/03 12:14:28;;;;;;;;;15.75;9.50;;;;;;;;5052906;28;45409;-63
2023/06/03 12:16:54;;;;;;;;;13.20;11.20;;;;;;;;5053053;28;45334;-61
2023/06/03 12:19:20;;;;;;;;;12.25;10.00;;;;;;;;5053472;28;46448;-60
2023/06/03 12:21:53;;;;;;;;;10.25;10.25;;;;;;;;5054284;28;45326;-61
2023/06/03 12:24:18;;;;;;;;;12.40;11.60;;;;;;;;5049828;28;45467;-61
2023/06/03 12:26:44;;;;;;;;;9.75;9.75;;;;;;;;5050688;28;45478;-63
2023/06/03 12:29:10;;;;;;;;;14.40;12.60;;;;;;;;5052179;28;45506;-61
2023/06/03 12:31:36;;;;;;;;;12.80;11.20;;;;;;;;5050109;28;45420;-60
2023/06/03 12:34:02;;;;;;;;;11.75;11.00;;;;;;;;5052393;28;45663;-61
2023/06/03 12:36:48;;;;;;;;;12.00;11.25;;;;;;;;5051025;28;45354;-63
2023/06/03 12:39:13;;;;;;;;;11.60;10.80;;;;;;;;5043881;28;46097;-62
2023/06/03 12:41:47;;;;;;;;;12.00;11.00;;;;;;;;5052229;28;45869;-62
2023/06/03 12:44:13;;;;;;;;;16.80;14.60;;;;;;;;5051061;28;45402;-62
2023/06/03 12:46:38;;;;;;;;;12.25;12.25;;;;;;;;5050640;28;45470;-59
2023/06/03 12:49:16;;;;;;;;;14.50;13.25;;;;;;;;5053787;28;45962;-60
2023/06/03 12:51:41;;;;;;;;;13.00;10.20;;;;;;;;5054928;28;45399;-60
2023/06/03 12:54:07;;;;;;;;;13.25;11.75;;;;;;;;5053962;28;45395;-61
2023/06/03 12:56:35;;;;;;;;;11.50;11.50;;;;;;;;5054181;28;45439;-61
2023/06/03 12:59:01;;;;;;;;;11.00;11.00;;;;;;;;5054611;28;46396;-61
2023/06/03 13:01:26;;;;;;;;;9.50;9.50;;;;;;;;5045316;28;45171;-61
2023/06/03 13:03:54;;;;;;;;;11.00;10.25;;;;;;;;5042080;28;45706;-61
2023/06/03 13:06:20;;;;;;;;;15.20;13.80;;;;;;;;5054946;28;45348;-61
2023/06/03 13:08:45;;;;;;;;;12.00;10.25;;;;;;;;5053762;28;47724;-60
2023/06/03 13:11:10;;;;;;;;;9.50;9.50;;;;;;;;5054894;28;45495;-62
2023/06/03 13:13:36;;;;;;;;;11.00;10.00;;;;;;;;5054962;28;45413;-61
2023/06/03 13:16:01;;;;;;;;;11.50;8.75;;;;;;;;5053144;28;45380;-61
2023/06/03 13:18:27;;;;;;;;;9.75;9.75;;;;;;;;5054132;28;46298;-61
2023/06/03 13:20:52;;;;;;;;;12.25;11.25;;;;;;;;5054537;28;45427;-60
2023/06/03 13:23:18;;;;;;;;;11.25;10.25;;;;;;;;5055050;28;45635;-60
2023/06/03 13:25:43;;;;;;;;;11.50;10.50;;;;;;;;5054954;28;45536;-60
2023/06/03 13:28:08;;;;;;;;;10.25;10.25;;;;;;;;5053274;28;48373;-58
2023/06/03 13:30:34;;;;;;;;;11.50;11.25;;;;;;;;5054574;28;45231;-59
2023/06/03 13:32:59;;;;;;;;;12.25;8.25;;;;;;;;5054521;28;45273;-60
2023/06/03 13:35:25;;;;;;;;;10.00;10.00;;;;;;;;5054787;28;45615;-59
2023/06/03 13:37:50;;;;;;;;;12.00;10.00;;;;;;;;5054363;28;46636;-60
2023/06/03 13:40:16;;;;;;;;;13.00;11.50;;;;;;;;5053879;28;45230;-61
2023/06/03 13:42:41;;;;;;;;;9.75;9.75;;;;;;;;5054477;28;45273;-60
2023/06/03 13:45:07;;;;;;;;;12.00;12.00;;;;;;;;5054752;28;45534;-56
2023/06/03 13:47:32;;;;;;;;;9.25;9.25;;;;;;;;5054266;28;46019;-57
2023/06/03 13:49:58;;;;;;;;;9.75;9.00;;;;;;;;5052950;28;45331;-58
2023/06/03 13:52:24;;;;;;;;;9.00;9.00;;;;;;;;5054680;28;45198;-58
2023/06/03 13:54:49;;;;;;;;;12.00;10.00;;;;;;;;5053721;28;45357;-57
2023/06/03 13:57:15;;;;;;;;;10.25;10.00;;;;;;;;5052416;28;47236;-58
2023/06/03 13:59:40;;;;;;;;;12.75;12.75;;;;;;;;5052891;28;45400;-58
2023/06/03 14:02:05;;;;;;;;;13.25;10.25;;;;;;;;5053299;28;45330;-59
2023/06/03 14:04:31;;;;;;;;;9.50;7.50;;;;;;;;5053194;28;46064;-59
2023/06/03 14:06:56;;;;;;;;;10.00;9.00;;;;;;;;5053098;28;46492;-59
2023/06/03 14:09:21;;;;;;;;;8.75;8.50;;;;;;;;5052885;28;45439;-59
2023/06/03 14:11:46;;;;;;;;;12.50;9.75;;;;;;;;5054566;28;45470;-58
2023/06/03 14:14:12;;;;;;;;;10.00;9.25;;;;;;;;5054560;28;45281;-58
2023/06/03 14:16:37;;;;;;;;;10.50;10.50;;;;;;;;5053983;28;45983;-58